createdAt,value
2023-08-20T00:12:11.694Z,291
2023-08-20T00:32:12.698Z,294
2023-08-20T00:52:11.770Z,291
2023-08-20T01:12:11.763Z,289
2023-08-20T01:32:11.775Z,291
2023-08-20T01:52:11.781Z,292
2023-08-20T02:12:11.785Z,291
2023-08-20T02:32:11.843Z,292
2023-08-20T03:12:11.833Z,290
2023-08-20T03:32:12.745Z,291
2023-08-20T04:12:11.906Z,289
2023-08-20T04:52:11.977Z,286
2023-08-20T05:12:11.953Z,285
2023-08-20T05:32:11.962Z,286
2023-08-20T05:52:11.970Z,282
2023-08-20T06:32:11.978Z,289
2023-08-20T06:52:12.021Z,289
2023-08-20T07:12:12.044Z,290
2023-08-20T07:32:12.068Z,286
2023-08-20T07:52:12.061Z,279
2023-08-20T08:12:12.058Z,279
2023-08-20T08:32:12.091Z,279
2023-08-20T08:52:12.115Z,291
2023-08-20T09:12:12.107Z,293
2023-08-20T09:32:12.145Z,283
2023-08-20T10:12:12.175Z,282
2023-08-20T10:32:12.162Z,269
2023-08-20T10:52:12.189Z,275
2023-08-20T11:12:12.189Z,265
2023-08-20T11:32:12.206Z,266
2023-08-20T11:52:12.252Z,268
2023-08-20T12:12:12.214Z,251
2023-08-20T13:12:12.273Z,247
2023-08-20T13:32:12.070Z,248
2023-08-20T13:52:12.299Z,252
2023-08-20T14:52:19.714Z,242
2023-08-20T15:12:12.338Z,242
2023-08-20T15:32:12.347Z,244
2023-08-20T15:52:12.341Z,240
2023-08-20T16:12:12.361Z,247
2023-08-20T16:32:12.375Z,243
2023-08-20T16:52:19.402Z,249
2023-08-20T17:12:12.396Z,242
2023-08-20T17:32:12.428Z,241
2023-08-20T17:52:12.416Z,240
2023-08-20T18:12:12.446Z,240
2023-08-20T18:32:12.432Z,243
2023-08-20T18:52:12.461Z,244
2023-08-20T19:12:19.477Z,245
2023-08-20T19:32:12.478Z,249
2023-08-20T19:52:12.486Z,251
2023-08-20T20:12:12.519Z,251
2023-08-20T20:32:19.540Z,249
2023-08-20T20:52:12.551Z,255
2023-08-20T21:12:12.568Z,254
2023-08-20T21:32:12.575Z,253
2023-08-20T21:52:19.586Z,254
2023-08-20T22:12:19.591Z,252
2023-08-20T22:32:19.614Z,252
2023-08-20T22:52:12.642Z,253
2023-08-20T23:32:12.655Z,254
